sensor_id;sensor_type;location;lat;lon;timestamp;pressure;altitude;pressure_sealevel;temperature;humidity
62952;BME280;52163;52.212;-1.002;2022-08-19T00:00:19;100116.41;;;19.76;76.27
62952;BME280;52163;52.212;-1.002;2022-08-19T00:02:46;100112.66;;;19.72;76.30
62952;BME280;52163;52.212;-1.002;2022-08-19T00:05:13;100115.35;;;19.69;76.46
62952;BME280;52163;52.212;-1.002;2022-08-19T00:07:39;100116.69;;;19.68;76.74
62952;BME280;52163;52.212;-1.002;2022-08-19T00:10:07;100118.95;;;19.70;76.80
62952;BME280;52163;52.212;-1.002;2022-08-19T00:12:33;100123.49;;;19.73;76.94
62952;BME280;52163;52.212;-1.002;2022-08-19T00:15:00;100126.23;;;19.76;76.96
62952;BME280;52163;52.212;-1.002;2022-08-19T00:17:26;100125.27;;;19.80;77.05
62952;BME280;52163;52.212;-1.002;2022-08-19T00:19:51;100119.36;;;19.82;76.89
62952;BME280;52163;52.212;-1.002;2022-08-19T00:22:17;100117.25;;;19.82;76.95
62952;BME280;52163;52.212;-1.002;2022-08-19T00:24:44;100110.20;;;19.82;76.93
62952;BME280;52163;52.212;-1.002;2022-08-19T00:27:10;100109.31;;;19.80;76.99
62952;BME280;52163;52.212;-1.002;2022-08-19T00:29:37;100105.66;;;19.81;77.16
62952;BME280;52163;52.212;-1.002;2022-08-19T00:32:04;100110.33;;;19.83;77.20
62952;BME280;52163;52.212;-1.002;2022-08-19T00:34:29;100109.06;;;19.85;77.19
62952;BME280;52163;52.212;-1.002;2022-08-19T00:36:55;100109.83;;;19.86;77.22
62952;BME280;52163;52.212;-1.002;2022-08-19T00:39:21;100115.05;;;19.85;77.06
62952;BME280;52163;52.212;-1.002;2022-08-19T00:41:47;100119.84;;;19.83;77.07
62952;BME280;52163;52.212;-1.002;2022-08-19T00:46:45;100121.92;;;19.80;77.20
62952;BME280;52163;52.212;-1.002;2022-08-19T00:51:46;100120.73;;;19.79;77.42
62952;BME280;52163;52.212;-1.002;2022-08-19T00:54:12;100119.86;;;19.81;77.40
62952;BME280;52163;52.212;-1.002;2022-08-19T00:56:38;100123.54;;;19.81;77.28
62952;BME280;52163;52.212;-1.002;2022-08-19T00:59:05;100115.41;;;19.82;77.17
62952;BME280;52163;52.212;-1.002;2022-08-19T01:01:40;100117.36;;;19.84;77.24
62952;BME280;52163;52.212;-1.002;2022-08-19T01:04:06;100115.48;;;19.85;77.19
62952;BME280;52163;52.212;-1.002;2022-08-19T01:06:32;100113.45;;;19.84;77.14
62952;BME280;52163;52.212;-1.002;2022-08-19T01:08:59;100115.58;;;19.82;77.11
62952;BME280;52163;52.212;-1.002;2022-08-19T01:11:26;100116.31;;;19.82;77.11
62952;BME280;52163;52.212;-1.002;2022-08-19T01:13:53;100119.88;;;19.84;77.19
62952;BME280;52163;52.212;-1.002;2022-08-19T01:16:20;100121.83;;;19.86;77.10
62952;BME280;52163;52.212;-1.002;2022-08-19T01:18:47;100122.13;;;19.86;77.13
62952;BME280;52163;52.212;-1.002;2022-08-19T01:21:43;100120.02;;;19.86;76.94
62952;BME280;52163;52.212;-1.002;2022-08-19T01:24:11;100116.14;;;19.80;76.91
62952;BME280;52163;52.212;-1.002;2022-08-19T01:26:41;100117.60;;;19.77;77.06
62952;BME280;52163;52.212;-1.002;2022-08-19T01:29:09;100119.10;;;19.74;77.08
62952;BME280;52163;52.212;-1.002;2022-08-19T01:31:35;100124.48;;;19.72;77.17
62952;BME280;52163;52.212;-1.002;2022-08-19T01:34:03;100124.16;;;19.70;77.28
62952;BME280;52163;52.212;-1.002;2022-08-19T01:36:35;100125.14;;;19.71;77.37
62952;BME280;52163;52.212;-1.002;2022-08-19T01:39:06;100123.77;;;19.71;77.37
62952;BME280;52163;52.212;-1.002;2022-08-19T01:41:32;100125.96;;;19.70;77.36
62952;BME280;52163;52.212;-1.002;2022-08-19T01:43:58;100124.55;;;19.68;77.48
62952;BME280;52163;52.212;-1.002;2022-08-19T01:46:23;100117.86;;;19.67;77.43
62952;BME280;52163;52.212;-1.002;2022-08-19T01:48:49;100117.39;;;19.66;77.55
62952;BME280;52163;52.212;-1.002;2022-08-19T01:51:14;100117.70;;;19.67;77.81
62952;BME280;52163;52.212;-1.002;2022-08-19T01:53:40;100116.26;;;19.67;78.12
62952;BME280;52163;52.212;-1.002;2022-08-19T01:56:06;100119.14;;;19.65;78.42
62952;BME280;52163;52.212;-1.002;2022-08-19T01:58:37;100115.50;;;19.62;78.81
62952;BME280;52163;52.212;-1.002;2022-08-19T02:01:04;100114.35;;;19.60;78.91
62952;BME280;52163;52.212;-1.002;2022-08-19T02:03:30;100115.23;;;19.56;79.18
62952;BME280;52163;52.212;-1.002;2022-08-19T02:05:58;100116.86;;;19.53;79.47
62952;BME280;52163;52.212;-1.002;2022-08-19T02:08:28;100117.55;;;19.50;79.64
62952;BME280;52163;52.212;-1.002;2022-08-19T02:10:54;100115.30;;;19.49;79.96
62952;BME280;52163;52.212;-1.002;2022-08-19T02:13:19;100118.21;;;19.50;80.03
62952;BME280;52163;52.212;-1.002;2022-08-19T02:15:45;100120.34;;;19.52;80.26
62952;BME280;52163;52.212;-1.002;2022-08-19T02:18:11;100124.16;;;19.53;79.99
62952;BME280;52163;52.212;-1.002;2022-08-19T02:20:38;100128.81;;;19.54;79.92
62952;BME280;52163;52.212;-1.002;2022-08-19T02:23:06;100126.42;;;19.52;79.82
62952;BME280;52163;52.212;-1.002;2022-08-19T02:25:32;100123.76;;;19.48;79.93
62952;BME280;52163;52.212;-1.002;2022-08-19T02:27:57;100127.67;;;19.47;80.18
62952;BME280;52163;52.212;-1.002;2022-08-19T02:30:24;100125.93;;;19.47;80.37
62952;BME280;52163;52.212;-1.002;2022-08-19T02:32:50;100126.27;;;19.47;80.51
62952;BME280;52163;52.212;-1.002;2022-08-19T02:35:17;100128.11;;;19.46;80.51
62952;BME280;52163;52.212;-1.002;2022-08-19T02:37:43;100123.23;;;19.45;80.55
62952;BME280;52163;52.212;-1.002;2022-08-19T02:40:29;100120.41;;;19.44;80.64
62952;BME280;52163;52.212;-1.002;2022-08-19T02:42:55;100126.33;;;19.44;80.69
62952;BME280;52163;52.212;-1.002;2022-08-19T02:45:20;100126.83;;;19.43;80.77
62952;BME280;52163;52.212;-1.002;2022-08-19T02:47:47;100128.50;;;19.42;80.96
62952;BME280;52163;52.212;-1.002;2022-08-19T02:50:12;100127.77;;;19.44;81.21
62952;BME280;52163;52.212;-1.002;2022-08-19T02:52:38;100127.75;;;19.48;81.25
62952;BME280;52163;52.212;-1.002;2022-08-19T02:55:05;100129.83;;;19.52;81.09
62952;BME280;52163;52.212;-1.002;2022-08-19T02:57:31;100131.25;;;19.54;81.11
62952;BME280;52163;52.212;-1.002;2022-08-19T02:59:57;100136.03;;;19.56;81.02
62952;BME280;52163;52.212;-1.002;2022-08-19T03:02:22;100134.73;;;19.57;80.96
62952;BME280;52163;52.212;-1.002;2022-08-19T03:04:48;100132.80;;;19.56;80.92
62952;BME280;52163;52.212;-1.002;2022-08-19T03:07:15;100137.42;;;19.53;80.79
62952;BME280;52163;52.212;-1.002;2022-08-19T03:09:41;100134.73;;;19.50;81.08
62952;BME280;52163;52.212;-1.002;2022-08-19T03:12:10;100134.23;;;19.48;81.10
62952;BME280;52163;52.212;-1.002;2022-08-19T03:14:36;100139.53;;;19.45;81.39
62952;BME280;52163;52.212;-1.002;2022-08-19T03:17:03;100137.77;;;19.44;81.61
62952;BME280;52163;52.212;-1.002;2022-08-19T03:19:29;100131.19;;;19.44;81.72
62952;BME280;52163;52.212;-1.002;2022-08-19T03:21:56;100127.00;;;19.43;81.83
62952;BME280;52163;52.212;-1.002;2022-08-19T03:24:23;100129.23;;;19.42;81.86
62952;BME280;52163;52.212;-1.002;2022-08-19T03:26:51;100127.20;;;19.39;81.88
62952;BME280;52163;52.212;-1.002;2022-08-19T03:29:20;100127.30;;;19.38;82.02
62952;BME280;52163;52.212;-1.002;2022-08-19T03:31:45;100124.81;;;19.38;82.00
62952;BME280;52163;52.212;-1.002;2022-08-19T03:34:16;100129.14;;;19.36;81.72
62952;BME280;52163;52.212;-1.002;2022-08-19T03:36:43;100138.85;;;19.32;81.76
62952;BME280;52163;52.212;-1.002;2022-08-19T03:39:10;100141.97;;;19.30;81.95
62952;BME280;52163;52.212;-1.002;2022-08-19T03:41:41;100142.67;;;19.30;81.66
62952;BME280;52163;52.212;-1.002;2022-08-19T03:44:07;100139.52;;;19.26;81.35
62952;BME280;52163;52.212;-1.002;2022-08-19T03:46:34;100138.95;;;19.21;81.34
62952;BME280;52163;52.212;-1.002;2022-08-19T03:49:02;100138.98;;;19.15;80.90
62952;BME280;52163;52.212;-1.002;2022-08-19T03:51:38;100144.23;;;19.07;80.89
62952;BME280;52163;52.212;-1.002;2022-08-19T03:54:06;100146.98;;;19.03;81.26
62952;BME280;52163;52.212;-1.002;2022-08-19T03:56:37;100148.98;;;19.01;81.10
62952;BME280;52163;52.212;-1.002;2022-08-19T03:59:06;100152.28;;;18.99;81.04
62952;BME280;52163;52.212;-1.002;2022-08-19T04:01:31;100151.69;;;18.97;80.95
62952;BME280;52163;52.212;-1.002;2022-08-19T04:03:58;100154.70;;;18.92;80.78
62952;BME280;52163;52.212;-1.002;2022-08-19T04:06:29;100153.31;;;18.86;80.67
62952;BME280;52163;52.212;-1.002;2022-08-19T04:08:56;100152.21;;;18.83;80.79
62952;BME280;52163;52.212;-1.002;2022-08-19T04:11:25;100151.45;;;18.80;80.64
62952;BME280;52163;52.212;-1.002;2022-08-19T04:13:53;100150.23;;;18.78;80.92
62952;BME280;52163;52.212;-1.002;2022-08-19T04:16:21;100148.56;;;18.76;80.83
62952;BME280;52163;52.212;-1.002;2022-08-19T04:18:48;100145.26;;;18.74;80.95
62952;BME280;52163;52.212;-1.002;2022-08-19T04:21:23;100148.63;;;18.70;81.16
62952;BME280;52163;52.212;-1.002;2022-08-19T04:23:50;100152.02;;;18.63;81.07
62952;BME280;52163;52.212;-1.002;2022-08-19T04:26:24;100157.26;;;18.56;81.34
62952;BME280;52163;52.212;-1.002;2022-08-19T04:28:50;100160.21;;;18.49;81.46
62952;BME280;52163;52.212;-1.002;2022-08-19T04:31:23;100169.30;;;18.44;81.62
62952;BME280;52163;52.212;-1.002;2022-08-19T04:33:59;100173.45;;;18.40;81.91
62952;BME280;52163;52.212;-1.002;2022-08-19T04:36:30;100177.16;;;18.37;81.76
62952;BME280;52163;52.212;-1.002;2022-08-19T04:38:58;100180.48;;;18.32;81.88
62952;BME280;52163;52.212;-1.002;2022-08-19T04:41:25;100184.38;;;18.33;81.91
62952;BME280;52163;52.212;-1.002;2022-08-19T04:44:10;100184.42;;;18.31;81.66
62952;BME280;52163;52.212;-1.002;2022-08-19T04:46:36;100187.85;;;18.24;81.45
62952;BME280;52163;52.212;-1.002;2022-08-19T04:49:03;100188.11;;;18.14;81.52
62952;BME280;52163;52.212;-1.002;2022-08-19T04:51:31;100190.88;;;18.08;81.59
62952;BME280;52163;52.212;-1.002;2022-08-19T04:53:57;100197.89;;;18.04;81.79
62952;BME280;52163;52.212;-1.002;2022-08-19T04:56:25;100198.55;;;18.00;81.90
62952;BME280;52163;52.212;-1.002;2022-08-19T04:58:53;100198.77;;;17.98;82.05
62952;BME280;52163;52.212;-1.002;2022-08-19T05:01:25;100200.29;;;17.97;81.97
62952;BME280;52163;52.212;-1.002;2022-08-19T05:03:51;100199.69;;;17.94;82.07
62952;BME280;52163;52.212;-1.002;2022-08-19T05:06:19;100198.60;;;17.92;82.05
62952;BME280;52163;52.212;-1.002;2022-08-19T05:08:46;100201.16;;;17.88;82.08
62952;BME280;52163;52.212;-1.002;2022-08-19T05:11:23;100201.29;;;17.85;82.23
62952;BME280;52163;52.212;-1.002;2022-08-19T05:13:50;100200.02;;;17.81;82.44
62952;BME280;52163;52.212;-1.002;2022-08-19T05:16:19;100205.70;;;17.82;82.67
62952;BME280;52163;52.212;-1.002;2022-08-19T05:18:47;100205.73;;;17.83;82.71
62952;BME280;52163;52.212;-1.002;2022-08-19T05:21:32;100210.00;;;17.85;82.60
62952;BME280;52163;52.212;-1.002;2022-08-19T05:24:16;100218.48;;;17.88;82.36
62952;BME280;52163;52.212;-1.002;2022-08-19T05:26:45;100225.29;;;17.86;82.07
62952;BME280;52163;52.212;-1.002;2022-08-19T05:29:12;100233.63;;;17.88;82.51
62952;BME280;52163;52.212;-1.002;2022-08-19T05:31:38;100237.51;;;17.98;82.63
62952;BME280;52163;52.212;-1.002;2022-08-19T05:34:05;100236.59;;;18.12;82.44
62952;BME280;52163;52.212;-1.002;2022-08-19T05:36:40;100236.73;;;18.29;82.44
62952;BME280;52163;52.212;-1.002;2022-08-19T05:39:07;100228.86;;;18.38;82.09
62952;BME280;52163;52.212;-1.002;2022-08-19T05:41:33;100224.58;;;18.42;81.95
62952;BME280;52163;52.212;-1.002;2022-08-19T05:44:04;100227.08;;;18.42;81.66
62952;BME280;52163;52.212;-1.002;2022-08-19T05:46:32;100229.34;;;18.46;81.70
62952;BME280;52163;52.212;-1.002;2022-08-19T05:48:57;100230.06;;;18.57;81.48
62952;BME280;52163;52.212;-1.002;2022-08-19T05:51:25;100225.71;;;18.69;81.11
62952;BME280;52163;52.212;-1.002;2022-08-19T05:53:52;100225.63;;;18.80;80.87
62952;BME280;52163;52.212;-1.002;2022-08-19T05:56:18;100225.74;;;18.87;80.34
62952;BME280;52163;52.212;-1.002;2022-08-19T05:58:44;100228.81;;;18.92;80.18
62952;BME280;52163;52.212;-1.002;2022-08-19T06:01:14;100230.02;;;18.98;79.78
62952;BME280;52163;52.212;-1.002;2022-08-19T06:03:40;100235.60;;;18.97;79.28
62952;BME280;52163;52.212;-1.002;2022-08-19T06:06:07;100236.99;;;18.96;79.12
62952;BME280;52163;52.212;-1.002;2022-08-19T06:08:34;100241.85;;;18.96;78.93
62952;BME280;52163;52.212;-1.002;2022-08-19T06:11:24;100244.80;;;18.96;78.67
62952;BME280;52163;52.212;-1.002;2022-08-19T06:13:52;100243.16;;;18.95;78.60
62952;BME280;52163;52.212;-1.002;2022-08-19T06:16:19;100244.40;;;18.97;78.34
62952;BME280;52163;52.212;-1.002;2022-08-19T06:18:52;100243.98;;;18.94;78.00
62952;BME280;52163;52.212;-1.002;2022-08-19T06:21:23;100245.66;;;18.86;77.88
62952;BME280;52163;52.212;-1.002;2022-08-19T06:23:50;100244.14;;;18.80;77.79
62952;BME280;52163;52.212;-1.002;2022-08-19T06:26:16;100242.84;;;18.73;77.76
62952;BME280;52163;52.212;-1.002;2022-08-19T06:28:42;100245.39;;;18.71;77.93
62952;BME280;52163;52.212;-1.002;2022-08-19T06:31:17;100245.71;;;18.73;77.84
62952;BME280;52163;52.212;-1.002;2022-08-19T06:33:46;100248.41;;;18.78;77.92
62952;BME280;52163;52.212;-1.002;2022-08-19T06:38:43;100259.27;;;18.97;77.56
62952;BME280;52163;52.212;-1.002;2022-08-19T06:41:08;100262.06;;;19.03;77.17
62952;BME280;52163;52.212;-1.002;2022-08-19T06:43:35;100261.80;;;19.11;77.03
62952;BME280;52163;52.212;-1.002;2022-08-19T06:46:01;100270.59;;;19.20;76.85
62952;BME280;52163;52.212;-1.002;2022-08-19T06:48:29;100276.77;;;19.26;76.32
62952;BME280;52163;52.212;-1.002;2022-08-19T06:50:54;100271.29;;;19.27;76.12
62952;BME280;52163;52.212;-1.002;2022-08-19T06:53:21;100269.88;;;19.31;75.83
62952;BME280;52163;52.212;-1.002;2022-08-19T06:55:46;100270.32;;;19.32;75.53
62952;BME280;52163;52.212;-1.002;2022-08-19T06:58:12;100274.54;;;19.40;74.52
62952;BME280;52163;52.212;-1.002;2022-08-19T07:00:38;100268.09;;;19.54;73.89
62952;BME280;52163;52.212;-1.002;2022-08-19T07:03:04;100269.52;;;19.63;73.93
62952;BME280;52163;52.212;-1.002;2022-08-19T07:05:29;100274.56;;;19.66;73.49
62952;BME280;52163;52.212;-1.002;2022-08-19T07:07:55;100276.77;;;19.62;73.18
62952;BME280;52163;52.212;-1.002;2022-08-19T07:10:21;100279.91;;;19.54;72.98
62952;BME280;52163;52.212;-1.002;2022-08-19T07:12:46;100279.69;;;19.47;72.67
62952;BME280;52163;52.212;-1.002;2022-08-19T07:15:14;100282.55;;;19.37;72.45
62952;BME280;52163;52.212;-1.002;2022-08-19T07:17:40;100287.10;;;19.31;72.55
62952;BME280;52163;52.212;-1.002;2022-08-19T07:20:09;100294.23;;;19.33;72.70
62952;BME280;52163;52.212;-1.002;2022-08-19T07:22:35;100296.17;;;19.42;72.52
62952;BME280;52163;52.212;-1.002;2022-08-19T07:25:02;100297.55;;;19.37;72.10
62952;BME280;52163;52.212;-1.002;2022-08-19T07:27:29;100300.99;;;19.28;72.05
62952;BME280;52163;52.212;-1.002;2022-08-19T07:29:54;100304.66;;;19.23;72.22
62952;BME280;52163;52.212;-1.002;2022-08-19T07:32:20;100307.27;;;19.26;71.74
62952;BME280;52163;52.212;-1.002;2022-08-19T07:34:45;100307.44;;;19.31;71.66
62952;BME280;52163;52.212;-1.002;2022-08-19T07:37:11;100310.20;;;19.46;71.37
62952;BME280;52163;52.212;-1.002;2022-08-19T07:39:37;100310.90;;;19.50;70.59
62952;BME280;52163;52.212;-1.002;2022-08-19T07:42:07;100309.98;;;19.47;70.23
62952;BME280;52163;52.212;-1.002;2022-08-19T07:44:33;100313.80;;;19.37;69.86
62952;BME280;52163;52.212;-1.002;2022-08-19T07:46:59;100310.56;;;19.27;69.93
62952;BME280;52163;52.212;-1.002;2022-08-19T07:49:26;100313.11;;;19.26;69.87
62952;BME280;52163;52.212;-1.002;2022-08-19T07:52:07;100318.05;;;19.34;69.72
62952;BME280;52163;52.212;-1.002;2022-08-19T07:54:35;100318.60;;;19.40;69.50
62952;BME280;52163;52.212;-1.002;2022-08-19T07:57:01;100321.48;;;19.30;68.70
62952;BME280;52163;52.212;-1.002;2022-08-19T07:59:29;100320.72;;;19.15;68.19
62952;BME280;52163;52.212;-1.002;2022-08-19T08:01:55;100325.52;;;19.06;67.84
62952;BME280;52163;52.212;-1.002;2022-08-19T08:04:21;100322.81;;;19.00;67.04
62952;BME280;52163;52.212;-1.002;2022-08-19T08:07:06;100329.70;;;18.96;66.67
62952;BME280;52163;52.212;-1.002;2022-08-19T08:09:51;100330.71;;;18.89;65.67
62952;BME280;52163;52.212;-1.002;2022-08-19T08:12:23;100339.73;;;18.82;64.84
62952;BME280;52163;52.212;-1.002;2022-08-19T08:14:53;100338.26;;;18.78;64.32
62952;BME280;52163;52.212;-1.002;2022-08-19T08:17:21;100337.54;;;18.76;64.13
62952;BME280;52163;52.212;-1.002;2022-08-19T08:19:47;100339.34;;;18.78;63.80
62952;BME280;52163;52.212;-1.002;2022-08-19T08:22:18;100344.11;;;18.78;63.01
62952;BME280;52163;52.212;-1.002;2022-08-19T08:27:38;100353.73;;;18.73;62.20
62952;BME280;52163;52.212;-1.002;2022-08-19T08:30:17;100349.81;;;18.69;61.88
62952;BME280;52163;52.212;-1.002;2022-08-19T08:32:43;100352.52;;;18.67;61.56
62952;BME280;52163;52.212;-1.002;2022-08-19T08:35:12;100350.89;;;18.67;60.96
62952;BME280;52163;52.212;-1.002;2022-08-19T08:37:38;100350.34;;;18.68;60.67
62952;BME280;52163;52.212;-1.002;2022-08-19T08:40:14;100348.99;;;18.68;60.66
62952;BME280;52163;52.212;-1.002;2022-08-19T08:42:49;100352.02;;;18.68;60.35
62952;BME280;52163;52.212;-1.002;2022-08-19T08:45:17;100352.17;;;18.67;59.57
62952;BME280;52163;52.212;-1.002;2022-08-19T08:47:47;100359.60;;;18.66;59.30
62952;BME280;52163;52.212;-1.002;2022-08-19T08:52:49;100367.74;;;18.68;57.99
62952;BME280;52163;52.212;-1.002;2022-08-19T08:55:22;100364.48;;;18.69;57.80
62952;BME280;52163;52.212;-1.002;2022-08-19T09:00:38;100360.60;;;18.74;57.04
62952;BME280;52163;52.212;-1.002;2022-08-19T09:03:22;100358.89;;;18.77;57.28
62952;BME280;52163;52.212;-1.002;2022-08-19T09:09:18;100362.77;;;18.81;57.01
62952;BME280;52163;52.212;-1.002;2022-08-19T09:14:21;100362.23;;;18.91;56.52
62952;BME280;52163;52.212;-1.002;2022-08-19T09:16:47;100360.80;;;18.94;55.61
62952;BME280;52163;52.212;-1.002;2022-08-19T09:19:14;100364.88;;;18.95;55.66
62952;BME280;52163;52.212;-1.002;2022-08-19T09:21:42;100366.16;;;18.98;55.71
62952;BME280;52163;52.212;-1.002;2022-08-19T09:24:08;100365.77;;;19.02;55.42
62952;BME280;52163;52.212;-1.002;2022-08-19T09:26:33;100364.44;;;19.09;55.47
62952;BME280;52163;52.212;-1.002;2022-08-19T09:29:00;100359.13;;;19.17;55.01
62952;BME280;52163;52.212;-1.002;2022-08-19T09:31:28;100363.48;;;19.24;54.56
62952;BME280;52163;52.212;-1.002;2022-08-19T09:33:55;100362.05;;;19.27;53.51
62952;BME280;52163;52.212;-1.002;2022-08-19T09:36:26;100360.42;;;19.28;53.13
62952;BME280;52163;52.212;-1.002;2022-08-19T09:38:52;100358.84;;;19.27;52.38
62952;BME280;52163;52.212;-1.002;2022-08-19T09:41:21;100358.52;;;19.29;52.19
62952;BME280;52163;52.212;-1.002;2022-08-19T09:43:53;100361.50;;;19.31;51.44
62952;BME280;52163;52.212;-1.002;2022-08-19T09:46:21;100367.91;;;19.35;51.28
62952;BME280;52163;52.212;-1.002;2022-08-19T09:48:49;100371.61;;;19.36;50.93
62952;BME280;52163;52.212;-1.002;2022-08-19T09:51:18;100368.67;;;19.38;50.27
62952;BME280;52163;52.212;-1.002;2022-08-19T09:53:45;100371.05;;;19.41;49.42
62952;BME280;52163;52.212;-1.002;2022-08-19T09:56:12;100374.13;;;19.45;49.60
62952;BME280;52163;52.212;-1.002;2022-08-19T09:58:39;100370.75;;;19.50;49.21
62952;BME280;52163;52.212;-1.002;2022-08-19T10:01:06;100369.18;;;19.53;48.19
62952;BME280;52163;52.212;-1.002;2022-08-19T10:03:34;100369.95;;;19.53;47.70
62952;BME280;52163;52.212;-1.002;2022-08-19T10:06:02;100369.70;;;19.55;47.43
62952;BME280;52163;52.212;-1.002;2022-08-19T10:08:32;100375.70;;;19.61;47.20
62952;BME280;52163;52.212;-1.002;2022-08-19T10:10:59;100380.89;;;19.65;46.64
62952;BME280;52163;52.212;-1.002;2022-08-19T10:13:28;100382.19;;;19.68;46.20
62952;BME280;52163;52.212;-1.002;2022-08-19T10:15:56;100382.88;;;19.70;45.95
62952;BME280;52163;52.212;-1.002;2022-08-19T10:18:26;100378.20;;;19.70;45.90
62952;BME280;52163;52.212;-1.002;2022-08-19T10:20:52;100371.59;;;19.70;45.93
62952;BME280;52163;52.212;-1.002;2022-08-19T10:23:20;100373.72;;;19.76;45.94
62952;BME280;52163;52.212;-1.002;2022-08-19T10:25:46;100377.35;;;19.81;45.42
62952;BME280;52163;52.212;-1.002;2022-08-19T10:28:11;100375.73;;;19.83;44.96
62952;BME280;52163;52.212;-1.002;2022-08-19T10:30:40;100378.24;;;19.88;45.35
62952;BME280;52163;52.212;-1.002;2022-08-19T10:33:07;100382.43;;;19.93;45.62
62952;BME280;52163;52.212;-1.002;2022-08-19T10:35:32;100382.53;;;19.97;45.51
62952;BME280;52163;52.212;-1.002;2022-08-19T10:37:58;100380.66;;;19.99;45.28
62952;BME280;52163;52.212;-1.002;2022-08-19T10:40:26;100383.86;;;20.02;44.97
62952;BME280;52163;52.212;-1.002;2022-08-19T10:42:53;100392.13;;;20.05;45.22
62952;BME280;52163;52.212;-1.002;2022-08-19T10:45:19;100393.08;;;20.08;45.33
62952;BME280;52163;52.212;-1.002;2022-08-19T10:47:47;100388.17;;;20.10;45.53
62952;BME280;52163;52.212;-1.002;2022-08-19T10:50:13;100390.69;;;20.15;45.63
62952;BME280;52163;52.212;-1.002;2022-08-19T10:52:57;100394.42;;;20.21;45.51
62952;BME280;52163;52.212;-1.002;2022-08-19T10:55:24;100392.59;;;20.23;45.51
62952;BME280;52163;52.212;-1.002;2022-08-19T10:58:13;100394.05;;;20.30;45.61
62952;BME280;52163;52.212;-1.002;2022-08-19T11:00:39;100401.67;;;20.38;45.26
62952;BME280;52163;52.212;-1.002;2022-08-19T11:03:05;100395.45;;;20.37;44.84
62952;BME280;52163;52.212;-1.002;2022-08-19T11:05:31;100397.20;;;20.39;44.84
62952;BME280;52163;52.212;-1.002;2022-08-19T11:07:56;100391.98;;;20.45;45.08
62952;BME280;52163;52.212;-1.002;2022-08-19T11:10:22;100385.87;;;20.66;44.99
62952;BME280;52163;52.212;-1.002;2022-08-19T11:12:49;100382.53;;;20.94;45.13
62952;BME280;52163;52.212;-1.002;2022-08-19T11:15:19;100378.98;;;21.18;44.63
62952;BME280;52163;52.212;-1.002;2022-08-19T11:17:44;100382.17;;;21.32;44.22
62952;BME280;52163;52.212;-1.002;2022-08-19T11:20:14;100381.42;;;21.35;44.17
62952;BME280;52163;52.212;-1.002;2022-08-19T11:22:40;100382.23;;;21.39;43.91
62952;BME280;52163;52.212;-1.002;2022-08-19T11:25:08;100380.81;;;21.50;43.75
62952;BME280;52163;52.212;-1.002;2022-08-19T11:27:37;100385.75;;;21.53;43.56
62952;BME280;52163;52.212;-1.002;2022-08-19T11:30:05;100372.25;;;21.62;43.59
62952;BME280;52163;52.212;-1.002;2022-08-19T11:32:32;100373.70;;;21.62;43.29
62952;BME280;52163;52.212;-1.002;2022-08-19T11:34:58;100375.34;;;21.60;43.25
62952;BME280;52163;52.212;-1.002;2022-08-19T11:37:24;100373.62;;;21.61;43.13
62952;BME280;52163;52.212;-1.002;2022-08-19T11:39:49;100365.52;;;21.65;43.01
62952;BME280;52163;52.212;-1.002;2022-08-19T11:42:14;100368.38;;;21.71;43.08
62952;BME280;52163;52.212;-1.002;2022-08-19T11:44:59;100375.93;;;21.83;42.97
62952;BME280;52163;52.212;-1.002;2022-08-19T11:47:24;100381.48;;;21.85;42.63
62952;BME280;52163;52.212;-1.002;2022-08-19T11:49:50;100376.89;;;21.77;42.68
62952;BME280;52163;52.212;-1.002;2022-08-19T11:52:16;100375.34;;;21.72;42.44
62952;BME280;52163;52.212;-1.002;2022-08-19T11:54:41;100373.99;;;21.66;42.24
62952;BME280;52163;52.212;-1.002;2022-08-19T11:57:07;100372.91;;;21.65;42.08
62952;BME280;52163;52.212;-1.002;2022-08-19T11:59:32;100373.47;;;21.63;41.72
62952;BME280;52163;52.212;-1.002;2022-08-19T12:01:57;100373.83;;;21.59;41.88
62952;BME280;52163;52.212;-1.002;2022-08-19T12:04:24;100380.48;;;21.62;42.13
62952;BME280;52163;52.212;-1.002;2022-08-19T12:06:49;100382.01;;;21.67;42.17
62952;BME280;52163;52.212;-1.002;2022-08-19T12:09:15;100383.89;;;21.62;42.25
62952;BME280;52163;52.212;-1.002;2022-08-19T12:11:42;100383.16;;;21.62;42.36
62952;BME280;52163;52.212;-1.002;2022-08-19T12:14:12;100385.13;;;21.56;41.96
62952;BME280;52163;52.212;-1.002;2022-08-19T12:16:39;100381.23;;;21.42;41.83
62952;BME280;52163;52.212;-1.002;2022-08-19T12:19:06;100375.70;;;21.40;41.87
62952;BME280;52163;52.212;-1.002;2022-08-19T12:21:34;100378.20;;;21.43;42.02
62952;BME280;52163;52.212;-1.002;2022-08-19T12:24:01;100372.31;;;21.48;41.86
62952;BME280;52163;52.212;-1.002;2022-08-19T12:26:29;100368.35;;;21.54;41.92
62952;BME280;52163;52.212;-1.002;2022-08-19T12:28:57;100370.46;;;21.58;41.61
62952;BME280;52163;52.212;-1.002;2022-08-19T12:31:25;100373.64;;;21.63;41.75
62952;BME280;52163;52.212;-1.002;2022-08-19T12:33:51;100378.77;;;21.78;41.79
62952;BME280;52163;52.212;-1.002;2022-08-19T12:36:17;100371.06;;;21.99;41.71
62952;BME280;52163;52.212;-1.002;2022-08-19T12:38:44;100374.66;;;22.19;41.49
62952;BME280;52163;52.212;-1.002;2022-08-19T12:41:14;100380.71;;;22.34;41.60
62952;BME280;52163;52.212;-1.002;2022-08-19T12:43:42;100378.84;;;22.51;41.27
62952;BME280;52163;52.212;-1.002;2022-08-19T12:46:08;100380.34;;;22.65;40.78
62952;BME280;52163;52.212;-1.002;2022-08-19T12:48:34;100383.41;;;22.73;39.80
62952;BME280;52163;52.212;-1.002;2022-08-19T12:51:00;100374.58;;;22.78;39.81
62952;BME280;52163;52.212;-1.002;2022-08-19T12:53:30;100387.20;;;22.76;39.81
62952;BME280;52163;52.212;-1.002;2022-08-19T12:55:57;100384.73;;;22.64;39.99
62952;BME280;52163;52.212;-1.002;2022-08-19T12:58:23;100385.77;;;22.56;40.40
62952;BME280;52163;52.212;-1.002;2022-08-19T13:00:48;100392.35;;;22.39;40.70
62952;BME280;52163;52.212;-1.002;2022-08-19T13:03:14;100390.88;;;22.33;41.02
62952;BME280;52163;52.212;-1.002;2022-08-19T13:05:41;100393.33;;;22.42;41.38